sensor_id;sensor_type;location;lat;lon;timestamp;pressure;altitude;pressure_sealevel;temperature;humidity
32131;BME280;18639;50.716;7.086;2022-07-06T00:02:45;101128.88;;;16.69;67.90
32131;BME280;18639;50.716;7.086;2022-07-06T00:05:37;101140.16;;;16.81;68.24
32131;BME280;18639;50.716;7.086;2022-07-06T00:08:02;101140.63;;;16.75;68.12
32131;BME280;18639;50.716;7.086;2022-07-06T00:10:31;101213.59;;;17.10;68.56
32131;BME280;18639;50.716;7.086;2022-07-06T00:12:56;101109.84;;;16.56;67.97
32131;BME280;18639;50.716;7.086;2022-07-06T00:15:29;101112.47;;;16.45;69.58
32131;BME280;18639;50.716;7.086;2022-07-06T00:17:55;101209.34;;;16.98;69.76
32131;BME280;18639;50.716;7.086;2022-07-06T00:20:29;101140.19;;;16.46;70.09
32131;BME280;18639;50.716;7.086;2022-07-06T00:22:55;101228.78;;;16.94;70.68
32131;BME280;18639;50.716;7.086;2022-07-06T00:25:33;101171.53;;;16.57;70.63
32131;BME280;18639;50.716;7.086;2022-07-06T00:28:02;101202.53;;;16.62;71.06
32131;BME280;18639;50.716;7.086;2022-07-06T00:30:54;101152.53;;;16.33;71.68
32131;BME280;18639;50.716;7.086;2022-07-06T00:33:23;101128.94;;;16.23;72.59
32131;BME280;18639;50.716;7.086;2022-07-06T00:39:22;101284.44;;;16.83;73.40
32131;BME280;18639;50.716;7.086;2022-07-06T00:42:18;101189.41;;;16.28;73.52
32131;BME280;18639;50.716;7.086;2022-07-06T00:44:50;101189.50;;;16.27;73.13
32131;BME280;18639;50.716;7.086;2022-07-06T00:47:15;101271.38;;;16.72;73.29
32131;BME280;18639;50.716;7.086;2022-07-06T00:49:41;101273.13;;;16.60;72.40
32131;BME280;18639;50.716;7.086;2022-07-06T00:52:25;101266.06;;;16.50;72.39
32131;BME280;18639;50.716;7.086;2022-07-06T00:54:51;101273.16;;;16.48;72.80
32131;BME280;18639;50.716;7.086;2022-07-06T00:57:17;101263.91;;;16.43;72.27
32131;BME280;18639;50.716;7.086;2022-07-06T00:59:42;101243.44;;;16.26;72.85
32131;BME280;18639;50.716;7.086;2022-07-06T01:02:08;101268.50;;;16.40;73.62
32131;BME280;18639;50.716;7.086;2022-07-06T01:04:33;101263.88;;;16.32;73.60
32131;BME280;18639;50.716;7.086;2022-07-06T01:06:58;101262.78;;;16.24;73.44
32131;BME280;18639;50.716;7.086;2022-07-06T01:09:24;101268.94;;;16.23;74.05
32131;BME280;18639;50.716;7.086;2022-07-06T01:11:50;101277.91;;;16.19;74.54
32131;BME280;18639;50.716;7.086;2022-07-06T01:14:17;101257.97;;;16.07;75.24
32131;BME280;18639;50.716;7.086;2022-07-06T01:16:43;101239.84;;;15.92;75.59
32131;BME280;18639;50.716;7.086;2022-07-06T01:19:09;101272.78;;;16.06;76.45
32131;BME280;18639;50.716;7.086;2022-07-06T01:21:37;101263.94;;;15.96;76.62
32131;BME280;18639;50.716;7.086;2022-07-06T01:24:03;101265.31;;;15.89;76.99
32131;BME280;18639;50.716;7.086;2022-07-06T01:26:28;101245.47;;;15.75;76.75
32131;BME280;18639;50.716;7.086;2022-07-06T01:28:54;101249.13;;;15.73;76.98
32131;BME280;18639;50.716;7.086;2022-07-06T01:31:22;101275.91;;;15.75;77.39
32131;BME280;18639;50.716;7.086;2022-07-06T01:33:49;101274.56;;;15.69;77.34
32131;BME280;18639;50.716;7.086;2022-07-06T01:36:16;101263.75;;;15.63;76.99
32131;BME280;18639;50.716;7.086;2022-07-06T01:38:49;101268.03;;;15.64;76.70
32131;BME280;18639;50.716;7.086;2022-07-06T01:41:15;101252.31;;;15.52;76.81
32131;BME280;18639;50.716;7.086;2022-07-06T01:43:42;101272.59;;;15.60;76.94
32131;BME280;18639;50.716;7.086;2022-07-06T01:46:07;101262.28;;;15.46;76.18
32131;BME280;18639;50.716;7.086;2022-07-06T01:48:33;101266.47;;;15.48;76.29
32131;BME280;18639;50.716;7.086;2022-07-06T01:50:58;101256.06;;;15.48;76.30
32131;BME280;18639;50.716;7.086;2022-07-06T01:53:23;101250.72;;;15.50;76.21
32131;BME280;18639;50.716;7.086;2022-07-06T01:55:49;101250.66;;;15.51;76.36
32131;BME280;18639;50.716;7.086;2022-07-06T01:58:14;101216.16;;;15.35;76.09
32131;BME280;18639;50.716;7.086;2022-07-06T02:00:40;101257.69;;;15.49;75.37
32131;BME280;18639;50.716;7.086;2022-07-06T02:03:05;101259.91;;;15.43;76.07
32131;BME280;18639;50.716;7.086;2022-07-06T02:05:30;101268.44;;;15.45;76.27
32131;BME280;18639;50.716;7.086;2022-07-06T02:07:56;101258.44;;;15.39;76.89
32131;BME280;18639;50.716;7.086;2022-07-06T02:10:21;101268.25;;;15.35;77.09
32131;BME280;18639;50.716;7.086;2022-07-06T02:12:46;101265.66;;;15.35;76.97
32131;BME280;18639;50.716;7.086;2022-07-06T02:15:12;101272.44;;;15.38;76.18
32131;BME280;18639;50.716;7.086;2022-07-06T02:17:37;101269.81;;;15.38;76.68
32131;BME280;18639;50.716;7.086;2022-07-06T02:20:04;101280.84;;;15.41;76.93
32131;BME280;18639;50.716;7.086;2022-07-06T02:22:30;101261.59;;;15.31;76.82
32131;BME280;18639;50.716;7.086;2022-07-06T02:24:55;101245.88;;;15.20;76.27
32131;BME280;18639;50.716;7.086;2022-07-06T02:27:20;101268.59;;;15.31;76.23
32131;BME280;18639;50.716;7.086;2022-07-06T02:29:46;101266.06;;;15.29;76.43
32131;BME280;18639;50.716;7.086;2022-07-06T02:32:11;101277.56;;;15.27;76.12
32131;BME280;18639;50.716;7.086;2022-07-06T02:34:36;101269.94;;;15.24;76.73
32131;BME280;18639;50.716;7.086;2022-07-06T02:37:02;101250.06;;;15.10;77.05
32131;BME280;18639;50.716;7.086;2022-07-06T02:39:27;101272.84;;;15.19;76.84
32131;BME280;18639;50.716;7.086;2022-07-06T02:41:52;101273.19;;;15.14;77.39
32131;BME280;18639;50.716;7.086;2022-07-06T02:44:18;101265.69;;;15.10;77.03
32131;BME280;18639;50.716;7.086;2022-07-06T02:46:44;101263.72;;;15.01;77.61
32131;BME280;18639;50.716;7.086;2022-07-06T02:49:09;101272.34;;;15.01;77.27
32131;BME280;18639;50.716;7.086;2022-07-06T02:51:34;101274.22;;;14.99;77.58
32131;BME280;18639;50.716;7.086;2022-07-06T02:54:00;101280.28;;;15.00;78.02
32131;BME280;18639;50.716;7.086;2022-07-06T02:56:25;101240.09;;;14.79;77.62
32131;BME280;18639;50.716;7.086;2022-07-06T02:58:50;101265.06;;;14.94;77.84
32131;BME280;18639;50.716;7.086;2022-07-06T03:01:16;101258.59;;;14.87;78.27
32131;BME280;18639;50.716;7.086;2022-07-06T03:03:41;101262.97;;;14.86;78.19
32131;BME280;18639;50.716;7.086;2022-07-06T03:06:06;101251.09;;;14.82;77.29
32131;BME280;18639;50.716;7.086;2022-07-06T03:08:32;101255.56;;;14.80;77.41
32131;BME280;18639;50.716;7.086;2022-07-06T03:10:57;101231.53;;;14.51;77.49
32131;BME280;18639;50.716;7.086;2022-07-06T03:13:22;101252.16;;;14.67;78.27
32131;BME280;18639;50.716;7.086;2022-07-06T03:15:47;101266.69;;;14.69;78.54
32131;BME280;18639;50.716;7.086;2022-07-06T03:18:13;101276.72;;;14.63;78.93
32131;BME280;18639;50.716;7.086;2022-07-06T03:20:38;101293.03;;;14.65;79.57
32131;BME280;18639;50.716;7.086;2022-07-06T03:23:03;101278.13;;;14.54;79.23
32131;BME280;18639;50.716;7.086;2022-07-06T03:25:29;101294.09;;;14.62;79.14
32131;BME280;18639;50.716;7.086;2022-07-06T03:27:54;101285.94;;;14.54;79.80
32131;BME280;18639;50.716;7.086;2022-07-06T03:30:19;101275.09;;;14.48;80.08
32131;BME280;18639;50.716;7.086;2022-07-06T03:32:45;101280.41;;;14.46;79.92
32131;BME280;18639;50.716;7.086;2022-07-06T03:35:10;101252.97;;;14.28;79.27
32131;BME280;18639;50.716;7.086;2022-07-06T03:37:35;101235.03;;;14.11;79.73
32131;BME280;18639;50.716;7.086;2022-07-06T03:40:00;101280.59;;;14.43;79.94
32131;BME280;18639;50.716;7.086;2022-07-06T03:42:26;101284.03;;;14.44;80.10
32131;BME280;18639;50.716;7.086;2022-07-06T03:44:51;101266.31;;;14.36;80.06
32131;BME280;18639;50.716;7.086;2022-07-06T03:47:16;101292.50;;;14.47;79.52
32131;BME280;18639;50.716;7.086;2022-07-06T03:49:41;101287.88;;;14.38;79.42
32131;BME280;18639;50.716;7.086;2022-07-06T03:52:07;101279.91;;;14.27;79.97
32131;BME280;18639;50.716;7.086;2022-07-06T03:54:32;101293.44;;;14.32;80.63
32131;BME280;18639;50.716;7.086;2022-07-06T03:56:57;101292.50;;;14.33;80.64
32131;BME280;18639;50.716;7.086;2022-07-06T03:59:23;101288.97;;;14.34;80.34
32131;BME280;18639;50.716;7.086;2022-07-06T04:01:48;101302.53;;;14.39;80.83
32131;BME280;18639;50.716;7.086;2022-07-06T04:04:13;101286.59;;;14.31;80.16
32131;BME280;18639;50.716;7.086;2022-07-06T04:06:39;101288.44;;;14.29;80.67
32131;BME280;18639;50.716;7.086;2022-07-06T04:09:04;101306.81;;;14.40;80.03
32131;BME280;18639;50.716;7.086;2022-07-06T04:11:30;101302.53;;;14.39;80.02
32131;BME280;18639;50.716;7.086;2022-07-06T04:13:55;101293.06;;;14.38;80.61
32131;BME280;18639;50.716;7.086;2022-07-06T04:16:20;101315.16;;;14.45;79.97
32131;BME280;18639;50.716;7.086;2022-07-06T04:18:46;101305.06;;;14.41;80.67
32131;BME280;18639;50.716;7.086;2022-07-06T04:21:11;101267.59;;;14.16;80.55
32131;BME280;18639;50.716;7.086;2022-07-06T04:23:36;101296.78;;;14.34;80.28
32131;BME280;18639;50.716;7.086;2022-07-06T04:26:01;101317.38;;;14.51;80.63
32131;BME280;18639;50.716;7.086;2022-07-06T04:28:27;101311.50;;;14.48;80.67
32131;BME280;18639;50.716;7.086;2022-07-06T04:30:52;101323.94;;;14.57;79.93
32131;BME280;18639;50.716;7.086;2022-07-06T04:33:17;101331.97;;;14.66;79.60
32131;BME280;18639;50.716;7.086;2022-07-06T04:35:43;101323.31;;;14.66;79.56
32131;BME280;18639;50.716;7.086;2022-07-06T04:38:08;101324.19;;;14.79;79.75
32131;BME280;18639;50.716;7.086;2022-07-06T04:40:33;101328.69;;;14.90;79.63
32131;BME280;18639;50.716;7.086;2022-07-06T04:42:59;101318.66;;;14.96;78.93
32131;BME280;18639;50.716;7.086;2022-07-06T04:45:24;101316.19;;;15.07;78.37
32131;BME280;18639;50.716;7.086;2022-07-06T04:47:50;101312.34;;;15.13;78.85
32131;BME280;18639;50.716;7.086;2022-07-06T04:50:15;101312.66;;;15.21;79.06
32131;BME280;18639;50.716;7.086;2022-07-06T04:52:41;101303.78;;;15.24;78.18
32131;BME280;18639;50.716;7.086;2022-07-06T04:55:06;101320.03;;;15.40;78.05
32131;BME280;18639;50.716;7.086;2022-07-06T04:57:33;101315.03;;;15.37;77.77
32131;BME280;18639;50.716;7.086;2022-07-06T04:59:59;101321.59;;;15.42;77.66
32131;BME280;18639;50.716;7.086;2022-07-06T05:02:24;101329.00;;;15.48;77.75
32131;BME280;18639;50.716;7.086;2022-07-06T05:04:50;101342.56;;;15.53;77.67
32131;BME280;18639;50.716;7.086;2022-07-06T05:07:15;101337.75;;;15.60;77.30
32131;BME280;18639;50.716;7.086;2022-07-06T05:09:41;101315.69;;;15.53;77.34
32131;BME280;18639;50.716;7.086;2022-07-06T05:12:06;101311.69;;;15.47;77.29
32131;BME280;18639;50.716;7.086;2022-07-06T05:14:33;101324.63;;;15.62;77.35
32131;BME280;18639;50.716;7.086;2022-07-06T05:16:58;101331.91;;;15.69;77.78
32131;BME280;18639;50.716;7.086;2022-07-06T05:19:23;101293.06;;;15.53;76.92
32131;BME280;18639;50.716;7.086;2022-07-06T05:21:49;101322.31;;;15.70;77.30
32131;BME280;18639;50.716;7.086;2022-07-06T05:24:14;101331.34;;;15.77;77.78
32131;BME280;18639;50.716;7.086;2022-07-06T05:26:41;101327.28;;;15.85;78.37
32131;BME280;18639;50.716;7.086;2022-07-06T05:29:06;101326.22;;;15.88;78.06
32131;BME280;18639;50.716;7.086;2022-07-06T05:31:31;101324.25;;;15.91;77.75
32131;BME280;18639;50.716;7.086;2022-07-06T05:33:57;101307.28;;;15.86;77.43
32131;BME280;18639;50.716;7.086;2022-07-06T05:36:22;101326.59;;;16.07;77.10
32131;BME280;18639;50.716;7.086;2022-07-06T05:38:47;101323.06;;;16.19;76.56
32131;BME280;18639;50.716;7.086;2022-07-06T05:41:13;101323.31;;;16.16;75.62
32131;BME280;18639;50.716;7.086;2022-07-06T05:43:38;101253.47;;;15.85;75.04
32131;BME280;18639;50.716;7.086;2022-07-06T05:46:04;101307.44;;;16.19;76.39
32131;BME280;18639;50.716;7.086;2022-07-06T05:48:29;101311.59;;;16.22;75.46
32131;BME280;18639;50.716;7.086;2022-07-06T05:51:13;101310.22;;;16.05;76.36
32131;BME280;18639;50.716;7.086;2022-07-06T05:53:39;101326.53;;;16.20;75.79
32131;BME280;18639;50.716;7.086;2022-07-06T05:56:04;101329.13;;;16.20;76.61
32131;BME280;18639;50.716;7.086;2022-07-06T05:58:30;101323.72;;;16.23;75.58
32131;BME280;18639;50.716;7.086;2022-07-06T06:00:55;101312.97;;;16.15;76.83
32131;BME280;18639;50.716;7.086;2022-07-06T06:03:20;101327.75;;;16.27;76.20
32131;BME280;18639;50.716;7.086;2022-07-06T06:05:46;101338.03;;;16.17;76.59
32131;BME280;18639;50.716;7.086;2022-07-06T06:08:11;101326.97;;;16.14;77.09
32131;BME280;18639;50.716;7.086;2022-07-06T06:10:36;101299.50;;;15.97;76.92
32131;BME280;18639;50.716;7.086;2022-07-06T06:13:02;101352.47;;;16.34;77.19
32131;BME280;18639;50.716;7.086;2022-07-06T06:15:27;101332.38;;;16.23;76.71
32131;BME280;18639;50.716;7.086;2022-07-06T06:17:52;101344.56;;;16.47;75.52
32131;BME280;18639;50.716;7.086;2022-07-06T06:20:18;101333.13;;;16.36;75.31
32131;BME280;18639;50.716;7.086;2022-07-06T06:22:47;101343.56;;;16.36;76.31
32131;BME280;18639;50.716;7.086;2022-07-06T06:25:17;101347.59;;;16.40;77.26
32131;BME280;18639;50.716;7.086;2022-07-06T06:27:44;101362.69;;;16.61;77.09
32131;BME280;18639;50.716;7.086;2022-07-06T06:30:10;101354.44;;;16.78;74.16
32131;BME280;18639;50.716;7.086;2022-07-06T06:32:36;101346.09;;;16.73;74.34
32131;BME280;18639;50.716;7.086;2022-07-06T06:35:02;101341.63;;;16.75;74.45
32131;BME280;18639;50.716;7.086;2022-07-06T06:37:28;101359.88;;;16.75;75.73
32131;BME280;18639;50.716;7.086;2022-07-06T06:39:53;101355.13;;;16.69;75.64
32131;BME280;18639;50.716;7.086;2022-07-06T06:42:18;101345.13;;;16.63;76.37
32131;BME280;18639;50.716;7.086;2022-07-06T06:44:43;101347.09;;;16.83;75.94
32131;BME280;18639;50.716;7.086;2022-07-06T06:47:09;101360.78;;;16.98;75.50
32131;BME280;18639;50.716;7.086;2022-07-06T06:49:37;101351.16;;;16.87;75.09
32131;BME280;18639;50.716;7.086;2022-07-06T06:52:03;101347.09;;;16.83;76.19
32131;BME280;18639;50.716;7.086;2022-07-06T06:54:28;101358.28;;;16.96;75.89
32131;BME280;18639;50.716;7.086;2022-07-06T06:56:53;101345.25;;;17.07;73.80
32131;BME280;18639;50.716;7.086;2022-07-06T06:59:19;101357.16;;;17.34;73.76
32131;BME280;18639;50.716;7.086;2022-07-06T07:01:44;101360.53;;;17.47;71.45
32131;BME280;18639;50.716;7.086;2022-07-06T07:04:10;101351.94;;;17.34;70.88
32131;BME280;18639;50.716;7.086;2022-07-06T07:06:37;101328.91;;;17.27;72.63
32131;BME280;18639;50.716;7.086;2022-07-06T07:09:02;101362.53;;;17.43;72.15
32131;BME280;18639;50.716;7.086;2022-07-06T07:11:27;101368.13;;;17.50;71.12
32131;BME280;18639;50.716;7.086;2022-07-06T07:13:53;101355.19;;;17.71;69.29
32131;BME280;18639;50.716;7.086;2022-07-06T07:16:18;101367.63;;;18.00;69.38
32131;BME280;18639;50.716;7.086;2022-07-06T07:18:43;101346.47;;;18.03;68.83
32131;BME280;18639;50.716;7.086;2022-07-06T07:21:09;101370.09;;;18.24;68.79
32131;BME280;18639;50.716;7.086;2022-07-06T07:23:34;101362.94;;;18.26;66.94
32131;BME280;18639;50.716;7.086;2022-07-06T07:25:59;101371.56;;;18.38;69.32
32131;BME280;18639;50.716;7.086;2022-07-06T07:28:25;101373.69;;;18.55;66.24
32131;BME280;18639;50.716;7.086;2022-07-06T07:30:50;101347.16;;;18.48;65.11
32131;BME280;18639;50.716;7.086;2022-07-06T07:33:16;101368.78;;;18.62;67.36
32131;BME280;18639;50.716;7.086;2022-07-06T07:35:41;101366.47;;;18.79;66.54
32131;BME280;18639;50.716;7.086;2022-07-06T07:38:06;101353.59;;;18.97;66.01
32131;BME280;18639;50.716;7.086;2022-07-06T07:40:31;101345.13;;;19.05;65.63
32131;BME280;18639;50.716;7.086;2022-07-06T07:42:58;101351.59;;;19.31;62.28
32131;BME280;18639;50.716;7.086;2022-07-06T07:45:23;101313.91;;;19.22;59.88
32131;BME280;18639;50.716;7.086;2022-07-06T07:47:49;101366.09;;;19.56;60.33
32131;BME280;18639;50.716;7.086;2022-07-06T07:50:14;101366.53;;;19.40;61.55
32131;BME280;18639;50.716;7.086;2022-07-06T07:52:40;101369.88;;;19.42;61.23
32131;BME280;18639;50.716;7.086;2022-07-06T07:55:05;101372.00;;;19.27;62.45
32131;BME280;18639;50.716;7.086;2022-07-06T07:57:31;101352.44;;;19.31;61.23
32131;BME280;18639;50.716;7.086;2022-07-06T07:59:56;101358.59;;;19.21;61.64
32131;BME280;18639;50.716;7.086;2022-07-06T08:02:21;101368.97;;;19.02;60.57
32131;BME280;18639;50.716;7.086;2022-07-06T08:04:47;101363.34;;;18.85;62.65
32131;BME280;18639;50.716;7.086;2022-07-06T08:07:12;101367.16;;;18.81;64.18
32131;BME280;18639;50.716;7.086;2022-07-06T08:09:37;101344.19;;;18.53;64.36
32131;BME280;18639;50.716;7.086;2022-07-06T08:12:03;101360.44;;;18.68;63.07
32131;BME280;18639;50.716;7.086;2022-07-06T08:14:28;101360.50;;;18.57;64.91
32131;BME280;18639;50.716;7.086;2022-07-06T08:16:53;101331.03;;;18.32;65.15
32131;BME280;18639;50.716;7.086;2022-07-06T08:19:19;101366.94;;;18.41;65.28
32131;BME280;18639;50.716;7.086;2022-07-06T08:21:44;101338.53;;;18.37;64.82
32131;BME280;18639;50.716;7.086;2022-07-06T08:24:10;101368.91;;;18.49;64.78
32131;BME280;18639;50.716;7.086;2022-07-06T08:26:36;101343.03;;;18.35;63.55
32131;BME280;18639;50.716;7.086;2022-07-06T08:29:01;101366.34;;;18.38;63.30
32131;BME280;18639;50.716;7.086;2022-07-06T08:31:27;101364.31;;;18.41;62.70
32131;BME280;18639;50.716;7.086;2022-07-06T08:33:55;101360.63;;;18.76;64.27
32131;BME280;18639;50.716;7.086;2022-07-06T08:36:21;101345.13;;;19.05;60.69
32131;BME280;18639;50.716;7.086;2022-07-06T08:38:48;101356.34;;;19.37;57.03
32131;BME280;18639;50.716;7.086;2022-07-06T08:41:14;101350.13;;;19.68;56.70
32131;BME280;18639;50.716;7.086;2022-07-06T08:43:40;101351.22;;;20.06;56.25
32131;BME280;18639;50.716;7.086;2022-07-06T08:46:06;101355.63;;;20.15;56.47
32131;BME280;18639;50.716;7.086;2022-07-06T08:48:36;101338.91;;;19.97;54.98
32131;BME280;18639;50.716;7.086;2022-07-06T08:51:02;101317.00;;;19.67;54.62
32131;BME280;18639;50.716;7.086;2022-07-06T08:53:28;101338.88;;;19.87;54.33
32131;BME280;18639;50.716;7.086;2022-07-06T08:55:54;101349.41;;;19.97;53.75
32131;BME280;18639;50.716;7.086;2022-07-06T08:58:20;101291.72;;;19.66;55.51
32131;BME280;18639;50.716;7.086;2022-07-06T09:00:48;101332.53;;;19.90;51.61
32131;BME280;18639;50.716;7.086;2022-07-06T09:03:14;101359.28;;;19.84;52.99
32131;BME280;18639;50.716;7.086;2022-07-06T09:05:40;101360.34;;;19.71;55.22
32131;BME280;18639;50.716;7.086;2022-07-06T09:08:05;101348.84;;;19.53;55.81
32131;BME280;18639;50.716;7.086;2022-07-06T09:10:31;101342.13;;;19.40;55.17
32131;BME280;18639;50.716;7.086;2022-07-06T09:13:07;101303.63;;;19.10;54.57
32131;BME280;18639;50.716;7.086;2022-07-06T09:15:34;101364.53;;;19.23;55.11
32131;BME280;18639;50.716;7.086;2022-07-06T09:18:01;101354.38;;;19.09;56.69
32131;BME280;18639;50.716;7.086;2022-07-06T09:20:26;101359.94;;;18.95;56.56
32131;BME280;18639;50.716;7.086;2022-07-06T09:23:00;101361.72;;;19.15;56.71
32131;BME280;18639;50.716;7.086;2022-07-06T09:25:27;101369.59;;;19.15;55.91
32131;BME280;18639;50.716;7.086;2022-07-06T09:27:53;101362.88;;;19.22;57.94
32131;BME280;18639;50.716;7.086;2022-07-06T09:30:22;101365.63;;;19.20;56.82
32131;BME280;18639;50.716;7.086;2022-07-06T09:32:49;101352.06;;;19.15;55.78
32131;BME280;18639;50.716;7.086;2022-07-06T09:35:25;101353.53;;;19.50;55.86
32131;BME280;18639;50.716;7.086;2022-07-06T09:38:11;101357.56;;;19.63;55.43
32131;BME280;18639;50.716;7.086;2022-07-06T09:40:39;101348.75;;;19.64;54.58
32131;BME280;18639;50.716;7.086;2022-07-06T09:43:24;101355.72;;;19.85;56.21
32131;BME280;18639;50.716;7.086;2022-07-06T09:48:24;101364.00;;;19.90;52.87
32131;BME280;18639;50.716;7.086;2022-07-06T09:51:07;101360.94;;;19.75;53.45
32131;BME280;18639;50.716;7.086;2022-07-06T09:53:34;101359.03;;;19.87;52.50
32131;BME280;18639;50.716;7.086;2022-07-06T09:56:00;101354.19;;;19.82;54.42
32131;BME280;18639;50.716;7.086;2022-07-06T09:58:27;101346.31;;;19.82;54.63
32131;BME280;18639;50.716;7.086;2022-07-06T10:00:52;101334.97;;;19.72;52.52
32131;BME280;18639;50.716;7.086;2022-07-06T10:03:18;101358.88;;;19.79;53.65
32131;BME280;18639;50.716;7.086;2022-07-06T10:05:45;101355.72;;;19.94;53.75
32131;BME280;18639;50.716;7.086;2022-07-06T10:08:13;101350.06;;;19.99;55.38
32131;BME280;18639;50.716;7.086;2022-07-06T10:10:41;101341.94;;;20.02;54.09
32131;BME280;18639;50.716;7.086;2022-07-06T10:13:07;101344.59;;;20.11;54.25
32131;BME280;18639;50.716;7.086;2022-07-06T10:15:34;101347.31;;;19.91;53.68
32131;BME280;18639;50.716;7.086;2022-07-06T10:18:01;101368.22;;;20.31;53.06
32131;BME280;18639;50.716;7.086;2022-07-06T10:20:28;101355.38;;;20.28;51.92
32131;BME280;18639;50.716;7.086;2022-07-06T10:22:58;101359.59;;;20.49;52.07
32131;BME280;18639;50.716;7.086;2022-07-06T10:25:25;101336.06;;;20.29;52.17
32131;BME280;18639;50.716;7.086;2022-07-06T10:27:52;101347.97;;;20.33;52.22
32131;BME280;18639;50.716;7.086;2022-07-06T10:30:18;101353.34;;;20.31;53.32
32131;BME280;18639;50.716;7.086;2022-07-06T10:32:44;101356.66;;;20.33;53.95
32131;BME280;18639;50.716;7.086;2022-07-06T10:35:11;101357.22;;;20.37;51.10
32131;BME280;18639;50.716;7.086;2022-07-06T10:37:37;101354.25;;;20.30;50.36
32131;BME280;18639;50.716;7.086;2022-07-06T10:40:04;101352.88;;;20.07;51.62
32131;BME280;18639;50.716;7.086;2022-07-06T10:42:56;101340.59;;;20.07;52.34
32131;BME280;18639;50.716;7.086;2022-07-06T10:50:55;101349.19;;;20.77;49.85
32131;BME280;18639;50.716;7.086;2022-07-06T10:53:23;101350.03;;;20.77;48.81
32131;BME280;18639;50.716;7.086;2022-07-06T10:55:53;101351.41;;;20.81;49.27
32131;BME280;18639;50.716;7.086;2022-07-06T11:01:08;101335.84;;;21.17;48.50
32131;BME280;18639;50.716;7.086;2022-07-06T11:03:38;101341.50;;;21.12;49.22
32131;BME280;18639;50.716;7.086;2022-07-06T11:06:11;101338.06;;;21.21;46.99
32131;BME280;18639;50.716;7.086;2022-07-06T11:08:55;101337.78;;;21.05;47.44
32131;BME280;18639;50.716;7.086;2022-07-06T11:14:13;101328.44;;;20.74;47.91
32131;BME280;18639;50.716;7.086;2022-07-06T11:19:10;101338.13;;;20.92;48.07
32131;BME280;18639;50.716;7.086;2022-07-06T11:21:50;101321.53;;;20.82;47.98
32131;BME280;18639;50.716;7.086;2022-07-06T11:24:22;101315.03;;;20.77;48.27
32131;BME280;18639;50.716;7.086;2022-07-06T11:26:49;101357.19;;;21.04;47.19
32131;BME280;18639;50.716;7.086;2022-07-06T11:29:18;101344.03;;;20.94;47.02
32131;BME280;18639;50.716;7.086;2022-07-06T11:31:46;101340.06;;;20.81;46.70
32131;BME280;18639;50.716;7.086;2022-07-06T11:34:22;101331.47;;;20.79;47.93
32131;BME280;18639;50.716;7.086;2022-07-06T11:36:48;101288.66;;;20.49;48.45
32131;BME280;18639;50.716;7.086;2022-07-06T11:39:35;101274.84;;;20.28;46.55
32131;BME280;18639;50.716;7.086;2022-07-06T11:42:02;101316.59;;;20.60;47.45
32131;BME280;18639;50.716;7.086;2022-07-06T11:44:29;101327.38;;;20.47;48.11
32131;BME280;18639;50.716;7.086;2022-07-06T11:50:38;101331.09;;;20.83;47.64
32131;BME280;18639;50.716;7.086;2022-07-06T12:00:22;101287.94;;;20.76;47.84
32131;BME280;18639;50.716;7.086;2022-07-06T12:03:03;101328.69;;;20.90;47.62
32131;BME280;18639;50.716;7.086;2022-07-06T12:05:32;101240.59;;;20.39;48.50
32131;BME280;18639;50.716;7.086;2022-07-06T12:08:25;101305.44;;;21.05;48.83
32131;BME280;18639;50.716;7.086;2022-07-06T12:10:53;101256.44;;;20.47;47.65
32131;BME280;18639;50.716;7.086;2022-07-06T12:13:50;101317.03;;;21.12;47.76
32131;BME280;18639;50.716;7.086;2022-07-06T12:16:34;101292.53;;;21.11;45.12
32131;BME280;18639;50.716;7.086;2022-07-06T12:19:22;101312.16;;;21.26;45.42
32131;BME280;18639;50.716;7.086;2022-07-06T12:35:42;101296.19;;;21.37;46.12
32131;BME280;18639;50.716;7.086;2022-07-06T12:48:19;101313.56;;;21.11;47.58
32131;BME280;18639;50.716;7.086;2022-07-06T12:51:07;101241.91;;;20.72;47.41
32131;BME280;18639;50.716;7.086;2022-07-06T12:53:38;101247.13;;;20.82;46.04
32131;BME280;18639;50.716;7.086;2022-07-06T12:56:13;101310.66;;;21.24;46.67
32131;BME280;18639;50.716;7.086;2022-07-06T12:58:39;101284.25;;;21.16;44.92
32131;BME280;18639;50.716;7.086;2022-07-06T13:01:04;101279.25;;;21.13;45.66
32131;BME280;18639;50.716;7.086;2022-07-06T13:03:39;101293.53;;;21.20;45.17
32131;BME280;18639;50.716;7.086;2022-07-06T13:06:05;101283.22;;;21.26;44.98
32131;BME280;18639;50.716;7.086;2022-07-06T13:08:32;101271.09;;;21.25;45.11
32131;BME280;18639;50.716;7.086;2022-07-06T13:10:58;101276.00;;;21.38;44.61
32131;BME280;18639;50.716;7.086;2022-07-06T13:13:23;101265.66;;;21.27;45.64
32131;BME280;18639;50.716;7.086;2022-07-06T13:15:48;101265.78;;;21.35;43.79
32131;BME280;18639;50.716;7.086;2022-07-06T13:18:15;101264.50;;;21.39;45.90
32131;BME280;18639;50.716;7.086;2022-07-06T13:20:41;101265.56;;;21.46;45.47
32131;BME280;18639;50.716;7.086;2022-07-06T13:23:07;101244.88;;;21.33;46.41
32131;BME280;18639;50.716;7.086;2022-07-06T13:25:32;101258.38;;;21.21;44.55
32131;BME280;18639;50.716;7.086;2022-07-06T13:27:57;101260.56;;;21.25;45.93
32131;BME280;18639;50.716;7.086;2022-07-06T13:30:23;101246.28;;;21.28;46.18
32131;BME280;18639;50.716;7.086;2022-07-06T13:32:49;101244.22;;;21.31;46.25
32131;BME280;18639;50.716;7.086;2022-07-06T13:35:14;101246.22;;;21.37;46.53
32131;BME280;18639;50.716;7.086;2022-07-06T13:37:39;101251.28;;;21.49;45.88
32131;BME280;18639;50.716;7.086;2022-07-06T13:40:05;101240.78;;;21.49;45.15
32131;BME280;18639;50.716;7.086;2022-07-06T13:42:31;101241.53;;;21.59;44.31
32131;BME280;18639;50.716;7.086;2022-07-06T13:44:56;101242.94;;;21.53;43.75
32131;BME280;18639;50.716;7.086;2022-07-06T13:47:21;101230.06;;;21.32;44.22